createdAt,value
2022-10-02T00:00:18.617Z,5.40
2022-10-02T00:04:26.463Z,5.00
2022-10-02T00:08:06.932Z,4.50
2022-10-02T00:12:00.566Z,3.80
2022-10-02T00:15:54.071Z,4.90
2022-10-02T00:19:41.866Z,4.90
2022-10-02T00:23:32.459Z,5.20
2022-10-02T00:27:40.973Z,4.30
2022-10-02T00:31:43.831Z,4.80
2022-10-02T00:35:43.252Z,8.00
2022-10-02T00:39:17.884Z,4.30
2022-10-02T00:43:11.173Z,4.00
2022-10-02T00:47:17.157Z,4.70
2022-10-02T00:51:03.214Z,4.10
2022-10-02T00:54:55.700Z,4.10
2022-10-02T00:58:53.461Z,4.20
2022-10-02T01:02:42.324Z,3.90
2022-10-02T01:06:29.986Z,4.80
2022-10-02T01:10:17.601Z,7.70
2022-10-02T01:14:05.812Z,3.90
2022-10-02T01:18:02.244Z,3.10
2022-10-02T01:21:50.751Z,3.90
2022-10-02T01:25:50.987Z,3.40
2022-10-02T01:29:38.881Z,2.70
2022-10-02T01:33:21.309Z,3.10
2022-10-02T01:37:08.911Z,2.90
2022-10-02T01:40:59.179Z,2.30
2022-10-02T01:44:46.804Z,2.80
2022-10-02T01:48:34.780Z,3.00
2022-10-02T01:52:37.722Z,2.60
2022-10-02T01:56:37.710Z,2.70
2022-10-02T02:00:35.190Z,2.60
2022-10-02T02:04:21.575Z,3.00
2022-10-02T02:08:09.542Z,2.40
2022-10-02T02:11:59.784Z,2.60
2022-10-02T02:15:53.061Z,2.10
2022-10-02T02:19:46.747Z,2.20
2022-10-02T02:23:34.283Z,2.40
2022-10-02T02:27:21.818Z,2.30
2022-10-02T02:31:09.497Z,2.30
2022-10-02T02:35:03.252Z,1.80
2022-10-02T02:38:53.264Z,2.30
2022-10-02T02:42:40.737Z,2.20
2022-10-02T02:46:28.411Z,2.30
2022-10-02T02:50:15.971Z,1.90
2022-10-02T02:54:09.544Z,2.10
2022-10-02T02:57:57.087Z,1.70
2022-10-02T03:01:43.315Z,2.10
2022-10-02T03:05:31.107Z,2.00
2022-10-02T03:09:17.159Z,1.70
2022-10-02T03:13:07.940Z,4.40
2022-10-02T03:16:58.179Z,2.00
2022-10-02T03:20:51.610Z,2.00
2022-10-02T03:24:49.564Z,2.20
2022-10-02T03:28:56.026Z,2.70
2022-10-02T03:32:41.927Z,2.50
2022-10-02T03:36:29.452Z,2.40
2022-10-02T03:40:17.406Z,2.30
2022-10-02T03:44:05.408Z,2.40
2022-10-02T03:47:53.052Z,2.60
2022-10-02T03:51:40.621Z,2.40
2022-10-02T03:55:28.223Z,2.50
2022-10-02T03:59:15.704Z,2.70
2022-10-02T04:03:03.162Z,2.30
2022-10-02T04:06:53.304Z,2.90
2022-10-02T04:10:53.041Z,2.50
2022-10-02T04:14:47.383Z,2.60
2022-10-02T04:18:40.523Z,3.40
2022-10-02T04:22:43.175Z,2.70
2022-10-02T04:26:30.828Z,2.70
2022-10-02T04:30:24.303Z,2.80
2022-10-02T04:34:14.573Z,3.90
2022-10-02T04:38:10.947Z,2.70
2022-10-02T04:42:09.341Z,2.80
2022-10-02T04:46:08.212Z,3.20
2022-10-02T04:50:08.251Z,2.60
2022-10-02T04:53:59.122Z,3.10
2022-10-02T04:57:49.392Z,2.90
2022-10-02T05:01:35.541Z,2.60
2022-10-02T05:05:26.377Z,3.10
2022-10-02T05:09:16.685Z,2.20
2022-10-02T05:13:04.119Z,3.60
2022-10-02T05:16:51.686Z,3.60
2022-10-02T05:20:46.538Z,4.40
2022-10-02T05:25:01.448Z,3.40
2022-10-02T05:28:46.012Z,3.90
2022-10-02T05:32:42.517Z,4.20
2022-10-02T05:36:44.913Z,4.20
2022-10-02T05:40:44.512Z,3.50
2022-10-02T05:44:41.458Z,3.20
2022-10-02T05:48:29.454Z,4.40
2022-10-02T05:52:25.927Z,3.50
2022-10-02T05:56:28.022Z,3.50
2022-10-02T06:00:19.760Z,4.30
2022-10-02T06:04:03.929Z,3.60
2022-10-02T06:07:51.761Z,3.60
2022-10-02T06:11:46.375Z,3.60
2022-10-02T06:15:34.419Z,3.70
2022-10-02T06:19:22.355Z,3.00
2022-10-02T06:23:00.172Z,3.10
2022-10-02T06:26:55.232Z,3.30
2022-10-02T06:30:42.797Z,3.30
2022-10-02T06:34:30.457Z,2.90
2022-10-02T06:38:28.516Z,3.60
2022-10-02T06:42:34.527Z,3.20
2022-10-02T06:46:34.231Z,3.40
2022-10-02T06:50:32.129Z,2.90
2022-10-02T06:54:28.861Z,3.00
2022-10-02T06:58:08.567Z,3.30
2022-10-02T07:01:43.512Z,3.30
2022-10-02T07:05:38.771Z,2.90
2022-10-02T07:09:26.541Z,3.10
2022-10-02T07:13:35.357Z,2.20
2022-10-02T07:17:26.302Z,2.40
2022-10-02T07:21:26.316Z,2.90
2022-10-02T07:25:15.818Z,2.80
2022-10-02T07:29:23.269Z,2.90
2022-10-02T07:33:30.374Z,2.40
2022-10-02T07:37:36.672Z,2.60
2022-10-02T07:41:42.173Z,2.50
2022-10-02T07:45:41.529Z,2.30
2022-10-02T07:49:35.415Z,2.10
2022-10-02T07:53:41.314Z,3.00
2022-10-02T07:57:29.264Z,2.40
2022-10-02T08:01:23.625Z,2.40
2022-10-02T08:05:11.451Z,2.90
2022-10-02T08:09:00.090Z,2.60
2022-10-02T08:12:48.028Z,2.40
2022-10-02T08:16:36.151Z,3.00
2022-10-02T08:20:30.725Z,2.60
2022-10-02T08:24:36.679Z,3.40
2022-10-02T08:28:23.886Z,3.10
2022-10-02T08:32:12.422Z,2.60
2022-10-02T08:36:01.963Z,2.70
2022-10-02T08:39:58.676Z,3.20
2022-10-02T08:43:59.157Z,2.50
2022-10-02T08:47:44.448Z,3.30
2022-10-02T08:51:39.312Z,2.50
2022-10-02T08:55:39.031Z,2.70
2022-10-02T08:59:36.051Z,2.90
2022-10-02T09:03:48.208Z,2.40
2022-10-02T09:07:51.015Z,3.40
2022-10-02T09:11:57.721Z,2.40
2022-10-02T09:15:45.873Z,2.80
2022-10-02T09:19:42.700Z,1.90
2022-10-02T09:23:47.234Z,2.20
2022-10-02T09:27:45.846Z,2.40
2022-10-02T09:31:58.242Z,2.40
2022-10-02T09:36:04.390Z,2.50
2022-10-02T09:40:07.416Z,2.60
2022-10-02T09:43:55.545Z,1.50
2022-10-02T09:47:47.626Z,2.50
2022-10-02T09:51:44.794Z,2.00
2022-10-02T09:55:38.942Z,2.50
2022-10-02T09:59:42.482Z,2.30
2022-10-02T10:03:49.246Z,2.20
2022-10-02T10:07:48.122Z,1.90
2022-10-02T10:11:40.936Z,2.40
2022-10-02T10:15:35.604Z,2.30
2022-10-02T10:19:28.881Z,1.70
2022-10-02T10:23:24.985Z,1.30
2022-10-02T10:27:32.397Z,1.80
2022-10-02T10:31:26.749Z,2.40
2022-10-02T10:35:31.609Z,2.20
2022-10-02T10:39:23.842Z,1.40
2022-10-02T10:43:43.637Z,1.60
2022-10-02T10:47:32.383Z,1.50
2022-10-02T10:51:23.069Z,1.90
2022-10-02T10:55:15.861Z,1.50
2022-10-02T10:59:08.490Z,1.40
2022-10-02T11:02:56.148Z,1.80
2022-10-02T11:06:46.277Z,1.90
2022-10-02T11:10:50.141Z,1.60
2022-10-02T11:14:59.288Z,1.70
2022-10-02T11:18:46.144Z,1.60
2022-10-02T11:22:44.070Z,1.90
2022-10-02T11:26:29.764Z,1.50
2022-10-02T11:30:29.546Z,1.70
2022-10-02T11:34:20.394Z,1.30
2022-10-02T11:38:29.528Z,2.00
2022-10-02T11:42:32.734Z,1.50
2022-10-02T11:46:36.746Z,2.40
2022-10-02T11:50:23.577Z,1.40
2022-10-02T11:54:34.960Z,1.40
2022-10-02T11:58:54.249Z,1.70
2022-10-02T12:02:57.966Z,1.90
2022-10-02T12:06:58.714Z,2.10
2022-10-02T12:11:08.723Z,1.90
2022-10-02T12:15:06.862Z,1.80
2022-10-02T12:19:01.100Z,1.60
2022-10-02T12:22:54.943Z,1.30
2022-10-02T12:26:50.990Z,1.80
2022-10-02T12:30:38.406Z,1.70
2022-10-02T12:34:29.821Z,1.90
2022-10-02T12:38:14.962Z,1.80
2022-10-02T12:42:15.086Z,1.60
2022-10-02T12:46:09.658Z,2.90
2022-10-02T12:50:10.072Z,2.60
2022-10-02T12:53:58.613Z,1.80
2022-10-02T12:57:51.454Z,1.90
2022-10-02T13:01:54.240Z,2.30
2022-10-02T13:06:01.437Z,1.70
2022-10-02T13:10:14.683Z,1.80
2022-10-02T13:14:23.017Z,1.90
2022-10-02T13:18:07.249Z,2.00
2022-10-02T13:22:16.755Z,2.70
2022-10-02T13:26:19.434Z,2.90
2022-10-02T13:30:20.164Z,3.50
2022-10-02T13:34:15.009Z,3.20
2022-10-02T13:38:09.537Z,2.40
2022-10-02T13:42:10.275Z,2.50
2022-10-02T13:45:58.317Z,3.10
2022-10-02T13:49:58.639Z,3.80
2022-10-02T13:53:59.750Z,2.70
2022-10-02T13:58:08.914Z,3.10
2022-10-02T14:02:02.875Z,3.00
2022-10-02T14:05:59.848Z,3.00
2022-10-02T14:10:09.128Z,2.90
2022-10-02T14:14:01.138Z,2.20
2022-10-02T14:18:06.621Z,2.10
2022-10-02T14:22:06.693Z,2.20
2022-10-02T14:26:10.026Z,2.40
2022-10-02T14:30:00.014Z,2.60
2022-10-02T14:34:09.342Z,2.40
2022-10-02T14:38:06.551Z,2.40
2022-10-02T14:42:04.310Z,2.50
2022-10-02T14:46:04.585Z,1.90
2022-10-02T14:49:57.422Z,1.70
2022-10-02T14:53:54.905Z,1.90
2022-10-02T14:57:44.102Z,1.40
2022-10-02T15:01:41.956Z,1.50
2022-10-02T15:05:28.883Z,1.20
2022-10-02T15:09:35.724Z,2.20
2022-10-02T15:13:18.961Z,1.30
2022-10-02T15:17:12.009Z,1.20
2022-10-02T15:20:59.776Z,1.10
2022-10-02T15:25:09.181Z,1.20
2022-10-02T15:28:59.825Z,1.10
2022-10-02T15:33:11.240Z,1.30
2022-10-02T15:37:05.946Z,1.00
2022-10-02T15:40:58.738Z,1.50
2022-10-02T15:44:50.154Z,1.30
2022-10-02T15:48:43.568Z,1.30
2022-10-02T15:52:50.539Z,1.80
2022-10-02T15:56:40.882Z,2.50
2022-10-02T16:00:31.786Z,2.30
2022-10-02T16:04:20.142Z,2.70
2022-10-02T16:08:17.601Z,3.60
2022-10-02T16:12:22.244Z,3.70
2022-10-02T16:16:25.507Z,3.60
2022-10-02T16:20:20.082Z,5.20
2022-10-02T16:24:08.422Z,5.40
2022-10-02T16:28:06.947Z,5.30
2022-10-02T16:32:03.937Z,5.20
2022-10-02T16:36:27.404Z,5.20
2022-10-02T16:40:26.924Z,4.60
2022-10-02T16:44:21.533Z,5.00
2022-10-02T16:48:09.423Z,4.20
2022-10-02T16:52:14.910Z,3.50
2022-10-02T16:56:14.114Z,3.50
2022-10-02T17:00:22.817Z,4.00
2022-10-02T17:04:07.726Z,4.90
2022-10-02T17:08:03.318Z,5.70
2022-10-02T17:11:46.253Z,8.10
2022-10-02T17:15:59.939Z,6.70
2022-10-02T17:19:36.381Z,6.20
2022-10-02T17:23:44.817Z,6.10
2022-10-02T17:27:44.725Z,5.20
2022-10-02T17:31:42.153Z,5.70
2022-10-02T17:35:35.029Z,5.40
2022-10-02T17:39:41.552Z,6.60
2022-10-02T17:43:55.928Z,5.20
2022-10-02T17:47:59.156Z,4.70
2022-10-02T17:51:55.186Z,3.80
2022-10-02T17:55:45.440Z,2.80
2022-10-02T17:59:32.293Z,3.10
2022-10-02T18:03:19.776Z,3.30
2022-10-02T18:07:11.406Z,3.80
2022-10-02T18:11:02.364Z,4.50
2022-10-02T18:15:17.614Z,4.50
2022-10-02T18:19:18.858Z,7.50
2022-10-02T18:22:49.648Z,9.70
2022-10-02T18:26:50.388Z,9.50
2022-10-02T18:30:30.754Z,9.80
2022-10-02T18:33:59.085Z,8.60
2022-10-02T18:37:46.469Z,8.00
2022-10-02T18:41:33.336Z,9.70
2022-10-02T18:45:19.288Z,9.60
2022-10-02T18:49:20.576Z,9.00
2022-10-02T18:52:49.819Z,7.80
2022-10-02T18:56:53.217Z,7.90
2022-10-02T19:00:21.146Z,8.20
2022-10-02T19:03:28.162Z,9.30
2022-10-02T19:07:15.931Z,8.40
2022-10-02T19:11:12.522Z,7.50
2022-10-02T19:15:03.612Z,8.40
2022-10-02T19:18:55.685Z,6.40
2022-10-02T19:22:52.612Z,7.00
2022-10-02T19:25:54.483Z,7.10
2022-10-02T19:29:32.974Z,7.10
2022-10-02T19:33:12.904Z,7.80
2022-10-02T19:36:57.141Z,8.00
2022-10-02T19:41:02.351Z,7.90
2022-10-02T19:45:00.517Z,8.00
2022-10-02T19:48:22.111Z,7.20
2022-10-02T19:52:16.674Z,5.90
2022-10-02T19:55:37.432Z,5.90
2022-10-02T19:59:08.029Z,5.20
2022-10-02T20:02:22.830Z,6.10
2022-10-02T20:06:11.345Z,5.00
2022-10-02T20:09:55.057Z,4.50
2022-10-02T20:13:46.101Z,5.70
2022-10-02T20:17:28.104Z,5.50
2022-10-02T20:21:15.920Z,5.40
2022-10-02T20:25:06.578Z,6.30
2022-10-02T20:28:50.266Z,6.70
2022-10-02T20:32:41.324Z,6.10
2022-10-02T20:36:34.639Z,6.00
2022-10-02T20:40:22.309Z,5.70
2022-10-02T20:44:08.490Z,6.10
2022-10-02T20:48:07.983Z,6.00
2022-10-02T20:51:59.040Z,5.60
2022-10-02T20:55:59.000Z,6.10
2022-10-02T20:59:47.418Z,5.30
2022-10-02T21:03:39.997Z,5.70
2022-10-02T21:07:43.072Z,4.40
2022-10-02T21:11:51.816Z,5.20
2022-10-02T21:16:00.179Z,4.20
2022-10-02T21:19:39.681Z,3.70
2022-10-02T21:23:48.443Z,3.80
2022-10-02T21:27:54.333Z,2.80
2022-10-02T21:31:57.123Z,3.00
2022-10-02T21:35:42.826Z,3.00
2022-10-02T21:39:48.384Z,2.70
2022-10-02T21:43:51.005Z,2.20
2022-10-02T21:47:39.192Z,2.90
2022-10-02T21:51:24.943Z,2.30
2022-10-02T21:55:20.028Z,2.50
2022-10-02T21:59:07.527Z,2.50
2022-10-02T22:03:10.285Z,2.40
2022-10-02T22:07:02.201Z,2.90
2022-10-02T22:10:50.917Z,3.10
2022-10-02T22:14:38.612Z,3.30
2022-10-02T22:18:26.427Z,3.30
2022-10-02T22:22:19.897Z,3.10
2022-10-02T22:26:25.493Z,3.30
2022-10-02T22:30:34.412Z,3.40
2022-10-02T22:34:33.615Z,3.30
2022-10-02T22:38:29.789Z,3.30
2022-10-02T22:42:17.399Z,3.70
2022-10-02T22:46:22.415Z,3.70
2022-10-02T22:50:28.439Z,3.30
2022-10-02T22:54:18.786Z,3.30
2022-10-02T22:58:05.465Z,3.60
2022-10-02T23:02:01.945Z,3.20
2022-10-02T23:05:55.665Z,3.80
2022-10-02T23:09:52.013Z,4.00
2022-10-02T23:13:39.745Z,3.90
2022-10-02T23:17:27.498Z,4.40
2022-10-02T23:21:44.598Z,4.10
2022-10-02T23:25:36.230Z,3.50
2022-10-02T23:29:32.334Z,3.20
2022-10-02T23:33:22.927Z,3.80
2022-10-02T23:37:16.211Z,3.40
2022-10-02T23:41:10.832Z,3.90
2022-10-02T23:45:10.323Z,3.70
2022-10-02T23:49:00.867Z,3.10
2022-10-02T23:52:54.380Z,3.60
2022-10-02T23:57:00.601Z,3.90
